Snohomish, WA

10:15 PM PDT on July 30, 2015 (GMT -0700)
APRSWXNET | | Change Station
CLOSE
Current Station
Personal Weather Station
Location: Lake Stevens, WA
Elevation: 665 ft
Nearby Weather Stations
Active Advisory: Heat Advisory

Elev 665 ft 48.04 °N, 121.97 °W | Updated 25 minutes ago

Clear
Clear
69 °F
Feels Like 69 °F
N
0
Wind Variable Wind from North
Gusts 0.0 mph

Today
High -- | Low -- °F
--% Chance of Precip.
Yesterday
High -- | Low -- °F
Precip. -- in
5:41 AM 8:46 PM
Full, 100% visible
Pressure 30.05 in
Visibility 10.0 miles
Clouds Clear
Dew Point 50 °F
Humidity 51%
Rainfall in
Snow Depth Not available.
UV 0 out of 12
Pollen 4.40 out of 12
Air Quality Not available.
Flu Activity Not available.
METAR KAWO 310455Z AUTO 31006KT 10SM CLR 22/09 A3005 RMK AO1

More Conditions Fewer Conditions

Pressure 30.05 in
Visibility 10.0 miles
Clouds Clear
Dew Point 50 °F
Humidity 51%
Rainfall in
Snow Depth Not available.
UV 0 out of 12
Pollen 4.40 out of 12
Air Quality Not available.
Flu Activity Not available.
METAR KAWO 310455Z AUTO 31006KT 10SM CLR 22/09 A3005 RMK AO1

More Conditions Fewer Conditions

10-Day Weather Forecast

×

Almanac

Astronomy

Jul. 30, 2015 Rise Set
Actual Time
Civil Twilight
Nautical Twilight
Astronomical Twilight
Moon
Length of Visible Light
Length of Day
Tomorrow will be .
, % of the Moon is Illuminated

Today's Extremes

State Highs State Lows

Community

WunderPhotos

Upload Photos

1,842,616 photos uploaded!

WunderBlogs® & News

Nearby

Air Quality

  Air Quality AQ Index Pollutant
Not available.

Snow Depth

Station Depth Elevation

Earthquake Activity

City Distance Mag. Time & Date
Minimum magnitude displayed is 2.5.

Coastal Water Temperatures

Place Temperature

Stations

Nearby Weather Stations

Station Location Temp. Windchill Dew Point Humidity Wind Precip. Elev Updated Type
                   
Heat Advisory
Statement as of 2:51 PM PDT on July 30, 2015

... Heat advisory remains in effect until 9 PM PDT Saturday...

* temperatures... highs will reach the mid and upper 90s again on
Friday and around 90 on Saturday. Low temperatures will be in
the upper 50s to low 60s... except lower to mid 60s in the
Seattle Metro area.

* Impacts... hot temperatures can place extra stress on the body
and possibly lead to dehydration and heat exhaustion. Drink
plenty of fluids.

Precautionary/preparedness actions...

Take extra precautions... if you work or spend time outside...
reschedule strenuous activities to early morning or evening if
possible. Know the signs and symptoms of heat exhaustion and heat
stroke. Wear light weight and loose fitting clothing when
possible and drink plenty of water. The interior of automobiles
can become very hot creating a danger if children or pets are
left unattended. Check up on relatives and neighbors.



Albrecht
weather.Gov/Seattle